createdAt,value
2016-10-19T00:01:06.226Z,24.94
2016-10-19T00:02:16.687Z,24.94
2016-10-19T00:04:18.199Z,24.87
2016-10-19T00:05:28.704Z,24.79
2016-10-19T00:06:39.268Z,24.83
2016-10-19T00:07:49.802Z,24.85
2016-10-19T00:09:00.283Z,24.8
2016-10-19T00:10:10.876Z,24.83
2016-10-19T00:11:21.393Z,24.8
2016-10-19T00:12:31.914Z,24.75
2016-10-19T00:13:42.457Z,24.75
2016-10-19T00:14:52.949Z,24.73
2016-10-19T00:16:03.431Z,24.79
2016-10-19T00:17:13.954Z,24.71
2016-10-19T00:18:24.470Z,24.67
2016-10-19T00:19:34.996Z,24.64
2016-10-19T00:20:45.501Z,24.63
2016-10-19T00:21:55.973Z,24.6
2016-10-19T00:23:06.490Z,24.61
2016-10-19T00:24:16.971Z,24.63
2016-10-19T00:25:27.448Z,24.61
2016-10-19T00:26:37.942Z,24.6
2016-10-19T00:27:48.532Z,24.57
2016-10-19T00:28:59.004Z,24.57
2016-10-19T00:30:09.514Z,24.57
2016-10-19T00:31:20.028Z,24.56
2016-10-19T00:32:30.549Z,24.59
2016-10-19T00:33:41.140Z,24.42
2016-10-19T00:34:51.588Z,24.42
2016-10-19T00:36:02.075Z,24.38
2016-10-19T00:37:12.578Z,24.39
2016-10-19T00:38:23.541Z,24.41
2016-10-19T00:39:34.005Z,24.41
2016-10-19T00:40:44.481Z,24.35
2016-10-19T00:41:54.960Z,24.35
2016-10-19T00:43:05.477Z,24.41
2016-10-19T00:44:15.973Z,24.29
2016-10-19T00:45:26.481Z,24.29
2016-10-19T00:46:36.994Z,24.22
2016-10-19T00:47:47.571Z,24.24
2016-10-19T00:48:58.583Z,24.2
2016-10-19T00:50:09.079Z,24.24
2016-10-19T00:51:19.780Z,24.24
2016-10-19T00:52:30.331Z,24.19
2016-10-19T00:53:40.825Z,24.14
2016-10-19T00:54:51.291Z,24.16
2016-10-19T00:56:01.805Z,24.14
2016-10-19T00:57:13.793Z,24.01
2016-10-19T00:58:24.250Z,24
2016-10-19T00:59:34.772Z,23.97
2016-10-19T01:00:45.305Z,23.92
2016-10-19T01:01:55.775Z,23.98
2016-10-19T01:03:06.280Z,23.94
2016-10-19T01:04:16.768Z,23.95
2016-10-19T01:05:27.247Z,23.94
2016-10-19T01:06:37.778Z,23.94
2016-10-19T01:07:48.298Z,23.86
2016-10-19T01:08:59.013Z,23.86
2016-10-19T01:11:25.698Z,23.87
2016-10-19T01:12:36.143Z,23.8
2016-10-19T01:13:46.639Z,23.7
2016-10-19T01:14:57.162Z,23.71
2016-10-19T01:16:07.651Z,23.65
2016-10-19T01:17:18.158Z,23.68
2016-10-19T01:18:28.667Z,23.6
2016-10-19T01:19:39.190Z,23.57
2016-10-19T01:20:49.702Z,23.55
2016-10-19T01:22:00.196Z,23.57
2016-10-19T01:23:11.136Z,23.53
2016-10-19T01:24:21.594Z,23.5
2016-10-19T01:25:32.069Z,23.46
2016-10-19T01:26:42.705Z,23.49
2016-10-19T01:27:53.157Z,23.46
2016-10-19T01:29:03.665Z,23.32
2016-10-19T01:30:14.174Z,23.42
2016-10-19T01:31:24.682Z,23.34
2016-10-19T01:32:35.389Z,23.29
2016-10-19T01:33:45.864Z,23.38
2016-10-19T01:34:56.357Z,23.38
2016-10-19T01:36:06.829Z,23.23
2016-10-19T01:37:17.369Z,23.23
2016-10-19T01:38:27.962Z,23.29
2016-10-19T01:39:38.453Z,23.31
2016-10-19T01:40:49.027Z,23.24
2016-10-19T01:41:59.577Z,23.22
2016-10-19T01:43:10.073Z,23.24
2016-10-19T01:44:20.712Z,23.12
2016-10-19T01:45:31.197Z,23.15
2016-10-19T01:46:41.701Z,23.11
2016-10-19T01:47:52.200Z,23.05
2016-10-19T01:49:02.679Z,23.11
2016-10-19T01:50:13.257Z,23.04
2016-10-19T01:51:23.736Z,23.02
2016-10-19T01:52:34.189Z,23.01
2016-10-19T01:53:44.652Z,23.02
2016-10-19T01:54:55.195Z,23.02
2016-10-19T01:56:05.730Z,22.97
2016-10-19T01:57:16.699Z,22.94
2016-10-19T01:58:27.174Z,22.97
2016-10-19T01:59:37.700Z,22.89
2016-10-19T02:00:48.170Z,22.89
2016-10-19T02:01:58.666Z,22.96
2016-10-19T02:03:09.182Z,22.92
2016-10-19T02:04:19.686Z,22.86
2016-10-19T02:05:30.163Z,22.86
2016-10-19T02:06:40.650Z,22.86
2016-10-19T02:07:51.316Z,22.83
2016-10-19T02:09:01.763Z,22.83
2016-10-19T02:10:12.262Z,22.86
2016-10-19T02:11:22.751Z,22.86
2016-10-19T02:12:33.231Z,22.72
2016-10-19T02:13:43.717Z,22.84
2016-10-19T02:14:54.239Z,22.83
2016-10-19T02:16:04.771Z,22.8
2016-10-19T02:17:15.282Z,22.71
2016-10-19T02:18:25.813Z,22.71
2016-10-19T02:19:36.461Z,22.71
2016-10-19T02:20:46.943Z,22.67
2016-10-19T02:21:57.422Z,22.71
2016-10-19T02:23:07.935Z,22.67
2016-10-19T02:24:18.431Z,22.62
2016-10-19T02:25:29.022Z,22.64
2016-10-19T02:26:39.505Z,22.67
2016-10-19T02:27:49.963Z,22.65
2016-10-19T02:29:00.498Z,22.65
2016-10-19T02:30:11.036Z,22.71
2016-10-19T02:31:21.594Z,22.65
2016-10-19T02:32:32.179Z,22.64
2016-10-19T02:33:42.685Z,22.67
2016-10-19T02:34:53.147Z,22.72
2016-10-19T02:36:03.667Z,22.52
2016-10-19T02:37:14.143Z,22.72
2016-10-19T02:38:24.650Z,22.67
2016-10-19T02:39:35.102Z,22.62
2016-10-19T02:40:45.607Z,22.57
2016-10-19T02:41:56.128Z,22.5
2016-10-19T02:43:06.729Z,22.54
2016-10-19T02:44:17.239Z,22.54
2016-10-19T02:45:27.725Z,22.54
2016-10-19T02:46:38.253Z,22.5
2016-10-19T02:47:48.824Z,22.57
2016-10-19T02:48:59.418Z,22.6
2016-10-19T02:50:09.900Z,22.57
2016-10-19T02:51:20.364Z,22.54
2016-10-19T02:52:30.841Z,22.53
2016-10-19T02:53:41.362Z,22.49
2016-10-19T02:54:51.850Z,22.49
2016-10-19T02:56:02.328Z,22.54
2016-10-19T02:57:12.791Z,22.44
2016-10-19T02:58:23.278Z,22.52
2016-10-19T02:59:33.775Z,22.41
2016-10-19T03:00:44.375Z,22.37
2016-10-19T03:01:54.861Z,22.39
2016-10-19T03:03:05.402Z,22.35
2016-10-19T03:04:15.911Z,22.39
2016-10-19T03:05:26.403Z,22.37
2016-10-19T03:06:36.981Z,22.35
2016-10-19T03:07:47.500Z,22.38
2016-10-19T03:08:57.993Z,22.35
2016-10-19T03:10:08.505Z,22.35
2016-10-19T03:11:19.000Z,22.34
2016-10-19T03:12:29.541Z,22.28
2016-10-19T03:13:40.064Z,22.23
2016-10-19T03:14:50.585Z,22.27
2016-10-19T03:16:01.073Z,22.23
2016-10-19T03:17:11.574Z,22.19
2016-10-19T03:18:22.205Z,22.16
2016-10-19T03:19:32.684Z,22.17
2016-10-19T03:20:43.141Z,22.17
2016-10-19T03:21:53.625Z,22.2
2016-10-19T03:23:04.156Z,22.16
2016-10-19T03:24:14.777Z,22.14
2016-10-19T03:25:25.284Z,22.09
2016-10-19T03:26:35.795Z,22.17
2016-10-19T03:27:46.328Z,22.2
2016-10-19T03:28:56.801Z,22.17
2016-10-19T03:30:07.261Z,22.25
2016-10-19T03:31:17.711Z,22.23
2016-10-19T03:32:28.160Z,22.2
2016-10-19T03:33:38.655Z,22.2
2016-10-19T03:34:49.111Z,22.22
2016-10-19T03:35:59.567Z,22.22
2016-10-19T03:37:10.021Z,22.16
2016-10-19T03:38:20.468Z,22.13
2016-10-19T03:39:30.970Z,22.16
2016-10-19T03:40:41.426Z,22.14
2016-10-19T03:41:51.993Z,22.13
2016-10-19T03:43:02.456Z,22.1
2016-10-19T03:44:12.942Z,22.12
2016-10-19T03:45:23.400Z,22.16
2016-10-19T03:46:33.851Z,22.17
2016-10-19T03:47:44.414Z,22.17
2016-10-19T03:48:54.898Z,22.17
2016-10-19T03:50:05.359Z,22.1
2016-10-19T03:51:15.842Z,22.13
2016-10-19T03:52:26.289Z,22.17
2016-10-19T03:53:36.785Z,22.06
2016-10-19T03:54:47.238Z,22.09
2016-10-19T03:55:57.708Z,22.09
2016-10-19T03:57:08.635Z,22.06
2016-10-19T03:58:19.112Z,21.98
2016-10-19T03:59:29.557Z,22.06
2016-10-19T04:00:40.018Z,22.09
2016-10-19T04:01:50.469Z,22.04
2016-10-19T04:03:00.930Z,21.91
2016-10-19T04:04:11.385Z,21.97
2016-10-19T04:05:21.843Z,21.83
2016-10-19T04:06:32.306Z,21.91
2016-10-19T04:07:43.237Z,21.88
2016-10-19T04:08:53.686Z,21.88
2016-10-19T04:10:04.183Z,21.78
2016-10-19T04:11:14.740Z,21.82
2016-10-19T04:12:25.188Z,21.88
2016-10-19T04:13:35.635Z,21.9
2016-10-19T04:14:46.100Z,21.92
2016-10-19T04:15:56.604Z,21.94
2016-10-19T04:17:07.149Z,21.98
2016-10-19T04:18:17.604Z,21.95
2016-10-19T04:19:28.062Z,21.91
2016-10-19T04:20:38.510Z,21.94
2016-10-19T04:21:49.000Z,21.94
2016-10-19T04:22:59.451Z,21.94
2016-10-19T04:24:09.917Z,21.92
2016-10-19T04:25:20.375Z,21.91
2016-10-19T04:26:30.817Z,21.88
2016-10-19T04:27:41.273Z,21.88
2016-10-19T04:28:51.733Z,21.94
2016-10-19T04:30:02.185Z,21.92
2016-10-19T04:31:12.637Z,21.91
2016-10-19T04:32:23.091Z,22.04
2016-10-19T04:33:34.038Z,21.95
2016-10-19T04:34:44.593Z,22.02
2016-10-19T04:35:55.077Z,21.94
2016-10-19T04:37:06.103Z,21.95
2016-10-19T04:38:16.649Z,21.82
2016-10-19T04:39:27.241Z,21.88
2016-10-19T04:40:37.909Z,21.85
2016-10-19T04:41:48.450Z,21.82
2016-10-19T04:42:58.998Z,21.81
2016-10-19T04:44:09.528Z,21.81
2016-10-19T04:45:20.017Z,21.76
2016-10-19T04:46:30.550Z,21.83
2016-10-19T04:47:41.038Z,21.79
2016-10-19T04:48:51.613Z,21.76
2016-10-19T04:50:02.157Z,21.78
2016-10-19T04:51:12.684Z,21.85
2016-10-19T04:52:23.171Z,21.78
2016-10-19T04:53:33.688Z,21.78
2016-10-19T04:54:44.224Z,21.83
2016-10-19T04:55:54.737Z,21.85
2016-10-19T04:57:05.256Z,21.76
2016-10-19T04:58:15.881Z,21.83
2016-10-19T04:59:26.407Z,21.85
2016-10-19T05:00:36.935Z,21.85
2016-10-19T05:01:48.016Z,21.79
2016-10-19T05:02:58.661Z,21.88
2016-10-19T05:04:09.247Z,21.91
2016-10-19T05:05:19.762Z,21.88
2016-10-19T05:06:30.298Z,21.83
2016-10-19T05:07:40.856Z,21.97
2016-10-19T05:08:51.407Z,21.94
2016-10-19T05:10:01.957Z,21.94
2016-10-19T05:11:12.539Z,21.98
2016-10-19T05:12:23.085Z,21.94
2016-10-19T05:13:33.678Z,21.92
2016-10-19T05:14:44.225Z,22.07
2016-10-19T05:15:54.792Z,22.01
2016-10-19T05:17:05.302Z,22.01
2016-10-19T05:18:15.825Z,22.02
2016-10-19T05:19:26.349Z,21.98
2016-10-19T05:20:36.858Z,22.02
2016-10-19T05:21:47.470Z,22.07
2016-10-19T05:22:58.001Z,22.06
2016-10-19T05:24:08.506Z,21.99
2016-10-19T05:25:19.015Z,22.01
2016-10-19T05:26:29.535Z,22.13
2016-10-19T05:27:40.198Z,22.04
2016-10-19T05:28:50.717Z,22.13
2016-10-19T05:30:01.283Z,22.13
2016-10-19T05:31:11.885Z,22.1
2016-10-19T05:32:22.442Z,22.12
2016-10-19T05:33:32.944Z,22.09
2016-10-19T05:34:43.483Z,22.19
2016-10-19T05:35:54.041Z,22.22
2016-10-19T05:37:04.556Z,22.22
2016-10-19T05:38:15.103Z,22.2
2016-10-19T05:39:25.720Z,22.14
2016-10-19T05:40:36.315Z,22.14
2016-10-19T05:41:46.843Z,22.16
2016-10-19T05:42:57.398Z,22.12
2016-10-19T05:44:07.906Z,22.14
2016-10-19T05:45:18.480Z,22.14
2016-10-19T05:46:29.485Z,22.16
2016-10-19T05:47:40.051Z,22.19
2016-10-19T05:48:50.597Z,22.13
2016-10-19T05:50:01.154Z,22.17
2016-10-19T05:51:11.696Z,22.1
2016-10-19T05:52:22.244Z,22.16
2016-10-19T05:53:32.821Z,22.17
2016-10-19T05:54:43.378Z,22.14
2016-10-19T05:55:54.385Z,22.22
2016-10-19T05:57:05.022Z,22.09
2016-10-19T05:58:15.559Z,22.1
2016-10-19T05:59:26.104Z,22.16
2016-10-19T06:00:36.642Z,22.17
2016-10-19T06:01:47.214Z,22.09
2016-10-19T06:02:57.844Z,22.09
2016-10-19T06:04:08.389Z,21.98
2016-10-19T06:05:18.986Z,22.04
2016-10-19T06:06:29.510Z,22.04
2016-10-19T06:07:40.039Z,22.12
2016-10-19T06:08:50.654Z,22.07
2016-10-19T06:10:01.236Z,21.99
2016-10-19T06:11:11.762Z,21.98
2016-10-19T06:12:22.339Z,22.02
2016-10-19T06:13:32.875Z,21.94
2016-10-19T06:14:43.446Z,22.02
2016-10-19T06:15:53.925Z,22.06
2016-10-19T06:17:04.433Z,22.01
2016-10-19T06:18:14.921Z,21.95
2016-10-19T06:19:25.452Z,21.92
2016-10-19T06:20:36.105Z,21.98
2016-10-19T06:21:46.676Z,21.98
2016-10-19T06:22:57.199Z,21.88
2016-10-19T06:24:08.689Z,21.88
2016-10-19T06:25:19.214Z,21.88
2016-10-19T06:26:29.729Z,21.83
2016-10-19T06:27:40.302Z,21.79
2016-10-19T06:28:50.846Z,21.72
2016-10-19T06:30:01.330Z,21.71
2016-10-19T06:31:12.435Z,21.75
2016-10-19T06:32:22.979Z,21.71
2016-10-19T06:33:33.486Z,21.74
2016-10-19T06:34:44.015Z,21.75
2016-10-19T06:35:54.560Z,21.74
2016-10-19T06:37:05.087Z,21.72
2016-10-19T06:38:15.733Z,21.74
2016-10-19T06:39:26.288Z,21.76
2016-10-19T06:40:36.854Z,21.59
2016-10-19T06:41:47.370Z,21.57
2016-10-19T06:42:57.908Z,21.57
2016-10-19T06:44:08.471Z,21.59
2016-10-19T06:45:19.504Z,21.53
2016-10-19T06:46:30.045Z,21.48
2016-10-19T06:47:40.556Z,21.53
2016-10-19T06:48:51.072Z,21.56
2016-10-19T06:50:01.689Z,21.57
2016-10-19T06:51:12.238Z,21.57
2016-10-19T06:52:22.706Z,21.56
2016-10-19T06:53:33.196Z,21.6
2016-10-19T06:54:43.652Z,21.57
2016-10-19T06:55:54.132Z,21.57
2016-10-19T06:57:04.688Z,21.51
2016-10-19T06:58:15.710Z,21.48
2016-10-19T06:59:26.295Z,21.39
2016-10-19T07:00:56.082Z,21.42
2016-10-19T07:02:06.571Z,21.29
2016-10-19T07:03:17.075Z,21.39
2016-10-19T07:04:28.132Z,21.36
2016-10-19T07:05:38.638Z,21.24
2016-10-19T07:06:49.123Z,21.21
2016-10-19T07:07:59.601Z,21.29
2016-10-19T07:09:10.134Z,21.2
2016-10-19T07:10:20.675Z,21.06
2016-10-19T07:11:31.208Z,21.13
2016-10-19T07:12:41.835Z,21.09
2016-10-19T07:13:52.778Z,21.13
2016-10-19T07:15:03.335Z,21.05
2016-10-19T07:16:13.851Z,21.06
2016-10-19T07:17:24.317Z,21.11
2016-10-19T07:18:34.851Z,21.2
2016-10-19T07:19:45.357Z,21.14
2016-10-19T07:20:55.857Z,21.13
2016-10-19T07:22:06.342Z,21.01
2016-10-19T07:23:16.903Z,21.01
2016-10-19T07:24:27.510Z,21.09
2016-10-19T07:25:38.081Z,21.04
2016-10-19T07:26:49.150Z,21.06
2016-10-19T07:27:59.688Z,21.11
2016-10-19T07:29:10.265Z,20.93
2016-10-19T07:30:20.875Z,20.99
2016-10-19T07:31:31.407Z,20.99
2016-10-19T07:32:41.956Z,20.9
2016-10-19T07:33:52.514Z,20.89
2016-10-19T07:35:03.040Z,20.95
2016-10-19T07:36:13.673Z,20.95
2016-10-19T07:37:24.203Z,20.84
2016-10-19T07:38:34.756Z,20.79
2016-10-19T07:39:45.309Z,20.84
2016-10-19T07:40:55.967Z,20.83
2016-10-19T07:42:06.607Z,20.95
2016-10-19T07:43:17.153Z,20.84
2016-10-19T07:44:27.676Z,20.83
2016-10-19T07:45:38.226Z,20.84
2016-10-19T07:46:48.771Z,20.83
2016-10-19T07:47:59.419Z,20.83
2016-10-19T07:49:10.557Z,20.83
2016-10-19T07:50:21.093Z,20.76
2016-10-19T07:51:31.660Z,20.77
2016-10-19T07:52:42.189Z,20.71
2016-10-19T07:53:52.771Z,20.64
2016-10-19T07:55:03.323Z,20.69
2016-10-19T07:56:13.851Z,20.68
2016-10-19T07:57:24.389Z,20.71
2016-10-19T07:58:34.962Z,20.66
2016-10-19T07:59:45.505Z,20.79
2016-10-19T08:00:56.047Z,20.72
2016-10-19T08:02:06.601Z,20.69
2016-10-19T08:03:17.142Z,20.81
2016-10-19T08:04:27.686Z,20.8
2016-10-19T08:05:38.342Z,20.68
2016-10-19T08:06:48.896Z,20.76
2016-10-19T08:07:59.385Z,20.72
2016-10-19T08:09:09.917Z,20.66
2016-10-19T08:10:20.421Z,20.65
2016-10-19T08:11:31.027Z,20.74
2016-10-19T08:12:41.574Z,20.66
2016-10-19T08:13:52.108Z,20.62
2016-10-19T08:15:02.595Z,20.71
2016-10-19T08:16:13.116Z,20.71
2016-10-19T08:17:23.657Z,20.66
2016-10-19T08:18:34.214Z,20.69
2016-10-19T08:19:44.794Z,20.68
2016-10-19T08:20:55.379Z,20.68
2016-10-19T08:22:05.895Z,20.66
2016-10-19T08:23:16.409Z,20.66
2016-10-19T08:24:26.929Z,20.71
2016-10-19T08:25:37.472Z,20.69
2016-10-19T08:26:48.913Z,20.76
2016-10-19T08:27:59.399Z,20.8
2016-10-19T08:29:10.013Z,20.8
2016-10-19T08:30:20.537Z,20.8
2016-10-19T08:31:31.044Z,20.83
2016-10-19T08:32:41.580Z,20.84
2016-10-19T08:33:52.088Z,20.81
2016-10-19T08:35:02.755Z,20.83
2016-10-19T08:36:13.335Z,20.84
2016-10-19T08:37:23.867Z,20.79
2016-10-19T08:38:34.420Z,20.83
2016-10-19T08:39:45.008Z,20.8
2016-10-19T08:40:55.539Z,20.8
2016-10-19T08:42:06.120Z,20.81
2016-10-19T08:43:16.680Z,20.9
2016-10-19T08:44:27.240Z,20.86
2016-10-19T08:45:37.822Z,20.96
2016-10-19T08:46:48.388Z,21.11
2016-10-19T08:47:58.957Z,20.99
2016-10-19T08:49:09.935Z,21.02
2016-10-19T08:50:20.504Z,21.06
2016-10-19T08:51:31.105Z,21.08
2016-10-19T08:52:41.777Z,21.2
2016-10-19T08:53:52.271Z,21.17
2016-10-19T08:55:02.827Z,21.14
2016-10-19T08:56:13.371Z,21.3
2016-10-19T08:57:23.923Z,21.36
2016-10-19T08:58:34.472Z,21.41
2016-10-19T08:59:45.023Z,21.42
2016-10-19T09:00:55.624Z,21.5
2016-10-19T09:02:06.172Z,21.48
2016-10-19T09:03:16.684Z,21.48
2016-10-19T09:04:27.245Z,21.48
2016-10-19T09:05:38.281Z,21.57
2016-10-19T09:06:48.779Z,21.63
2016-10-19T09:07:59.395Z,21.74
2016-10-19T09:09:09.947Z,21.79
2016-10-19T09:10:20.554Z,21.83
2016-10-19T09:11:31.097Z,21.92
2016-10-19T09:12:41.658Z,21.97
2016-10-19T09:13:52.185Z,21.92
2016-10-19T09:15:02.742Z,22.06
2016-10-19T09:16:13.407Z,22.04
2016-10-19T09:17:23.904Z,22.14
2016-10-19T09:18:34.433Z,22.2
2016-10-19T09:19:45.452Z,22.23
2016-10-19T09:20:55.961Z,22.32
2016-10-19T09:22:06.506Z,22.41
2016-10-19T09:23:17.061Z,22.57
2016-10-19T09:24:27.633Z,22.54
2016-10-19T09:25:38.198Z,22.56
2016-10-19T09:26:48.761Z,22.69
2016-10-19T09:27:59.409Z,22.62
2016-10-19T09:29:09.955Z,22.77
2016-10-19T09:30:20.465Z,22.72
2016-10-19T09:31:31.058Z,22.74
2016-10-19T09:32:41.578Z,22.75
2016-10-19T09:33:52.091Z,22.97
2016-10-19T09:35:02.646Z,23.07
2016-10-19T09:36:13.213Z,23.07
2016-10-19T09:37:23.759Z,23.2
2016-10-19T09:38:34.316Z,23.42
2016-10-19T09:39:45.008Z,23.57
2016-10-19T09:40:55.618Z,23.8
2016-10-19T09:42:06.203Z,24.05
2016-10-19T09:43:16.792Z,24.27
2016-10-19T09:44:27.401Z,24.54
2016-10-19T09:45:37.960Z,24.42
2016-10-19T09:46:48.536Z,24.35
2016-10-19T09:47:59.126Z,24.52
2016-10-19T09:49:09.700Z,24.59
2016-10-19T09:50:20.291Z,24.68
2016-10-19T09:51:30.970Z,24.6
2016-10-19T09:52:41.552Z,24.42
2016-10-19T09:53:52.123Z,24.27
2016-10-19T09:55:02.719Z,24.16
2016-10-19T09:56:13.289Z,24.07
2016-10-19T09:57:23.965Z,23.9
2016-10-19T09:58:34.550Z,23.79
2016-10-19T09:59:45.132Z,23.8
2016-10-19T10:00:55.708Z,23.9
2016-10-19T10:02:06.283Z,23.98
2016-10-19T10:03:16.871Z,23.94
2016-10-19T10:04:27.448Z,23.83
2016-10-19T10:05:38.028Z,23.82
2016-10-19T10:06:48.643Z,23.87
2016-10-19T10:07:59.221Z,24.07
2016-10-19T10:09:09.911Z,24.13
2016-10-19T10:10:20.495Z,24.38
2016-10-19T10:11:31.068Z,24.6
2016-10-19T10:12:41.589Z,24.77
2016-10-19T10:13:52.059Z,24.95
2016-10-19T10:15:02.566Z,24.98
2016-10-19T10:16:13.045Z,25.07
2016-10-19T10:17:23.518Z,25.13
2016-10-19T10:18:34.007Z,25.12
2016-10-19T10:19:44.507Z,25.46
2016-10-19T10:20:55.117Z,25.82
2016-10-19T10:22:05.681Z,26.09
2016-10-19T10:23:16.203Z,26.35
2016-10-19T10:24:27.145Z,26.62
2016-10-19T10:25:37.683Z,26.87
2016-10-19T10:26:48.295Z,27.24
2016-10-19T10:27:58.776Z,27.32
2016-10-19T10:29:09.268Z,27.35
2016-10-19T10:30:19.730Z,27.54
2016-10-19T10:31:30.250Z,27.82
2016-10-19T10:32:40.766Z,28.01
2016-10-19T10:33:51.285Z,27.88
2016-10-19T10:35:01.812Z,28.31
2016-10-19T10:36:12.793Z,28.6
2016-10-19T10:37:23.298Z,29.15
2016-10-19T10:38:33.901Z,29.57
2016-10-19T10:39:44.392Z,29.89
2016-10-19T10:40:55.372Z,30.12
2016-10-19T10:42:05.890Z,30.45
2016-10-19T10:43:16.365Z,30.75
2016-10-19T10:44:26.846Z,31.23
2016-10-19T10:45:37.358Z,31.65
2016-10-19T10:46:47.899Z,31.72
2016-10-19T10:47:58.424Z,31.61
2016-10-19T10:49:08.950Z,31.8
2016-10-19T10:50:19.938Z,32.02
2016-10-19T10:51:30.427Z,32.91
2016-10-19T10:52:40.944Z,33.31
2016-10-19T10:53:51.415Z,33.11
2016-10-19T10:55:01.927Z,33.19
2016-10-19T10:56:12.479Z,32.24
2016-10-19T10:57:23.047Z,32.48
2016-10-19T10:58:33.581Z,33.15
2016-10-19T10:59:44.095Z,33.76
2016-10-19T11:00:54.641Z,33.78
2016-10-19T11:02:05.267Z,33.41
2016-10-19T11:03:15.785Z,33.53
2016-10-19T11:04:26.287Z,33.55
2016-10-19T11:05:36.812Z,33.89
2016-10-19T11:06:47.362Z,34.13
2016-10-19T11:07:57.979Z,34.34
2016-10-19T11:09:08.504Z,33.9
2016-10-19T11:10:19.484Z,33.08
2016-10-19T11:11:30.040Z,33.06
2016-10-19T11:12:40.554Z,33.17
2016-10-19T11:13:51.223Z,33.1
2016-10-19T11:15:01.745Z,33.3
2016-10-19T11:16:12.232Z,33.26
2016-10-19T11:17:22.789Z,33.3
2016-10-19T11:18:33.297Z,33.78
2016-10-19T11:19:43.884Z,34.13
2016-10-19T11:20:54.363Z,34.14
2016-10-19T11:22:04.906Z,33.97
2016-10-19T11:23:15.399Z,33.76
2016-10-19T11:24:25.913Z,34.22
2016-10-19T11:25:36.538Z,34.56
2016-10-19T11:26:47.082Z,35.13
2016-10-19T11:27:57.571Z,35.06
2016-10-19T11:29:08.045Z,35.11
2016-10-19T11:30:18.531Z,34.94
2016-10-19T11:31:29.071Z,35.39
2016-10-19T11:32:39.542Z,36.06
2016-10-19T11:33:50.067Z,35.64
2016-10-19T11:35:00.535Z,36.41
2016-10-19T11:36:11.089Z,36.7
2016-10-19T11:37:21.729Z,35.79
2016-10-19T11:38:32.256Z,35.44
2016-10-19T11:39:42.772Z,35.42
2016-10-19T11:40:53.265Z,35.85
2016-10-19T11:42:03.764Z,36.01
2016-10-19T11:43:14.262Z,35.52
2016-10-19T11:44:24.756Z,35.25
2016-10-19T11:45:35.262Z,35.29
2016-10-19T11:46:45.761Z,35.86
2016-10-19T11:47:56.252Z,35.88
2016-10-19T11:49:06.876Z,36.31
2016-10-19T11:50:17.413Z,35.86
2016-10-19T11:51:27.929Z,36.45
2016-10-19T11:52:38.437Z,36.82
2016-10-19T11:53:48.953Z,36.52
2016-10-19T11:54:59.559Z,35.76
2016-10-19T11:56:10.107Z,35.86
2016-10-19T11:57:20.629Z,36.14
2016-10-19T11:58:31.192Z,36.76
2016-10-19T11:59:41.759Z,36.87
2016-10-19T12:00:52.275Z,37.32
2016-10-19T12:02:02.793Z,37.95
2016-10-19T12:03:13.295Z,37.8
2016-10-19T12:04:23.768Z,37.38
2016-10-19T12:05:34.287Z,37.28
2016-10-19T12:06:44.916Z,37.01
2016-10-19T12:07:55.418Z,37.31
2016-10-19T12:09:06.002Z,37.05
2016-10-19T12:10:16.575Z,37.31
2016-10-19T12:11:27.099Z,37.54
2016-10-19T12:12:37.605Z,37.83
2016-10-19T12:13:48.158Z,38.49
2016-10-19T12:14:58.661Z,38.7
2016-10-19T12:16:09.702Z,38.89
2016-10-19T12:17:20.222Z,38.61
2016-10-19T12:18:30.842Z,38.95
2016-10-19T12:19:41.881Z,38.75
2016-10-19T12:20:52.397Z,38.17
2016-10-19T12:22:02.899Z,38.34
2016-10-19T12:23:13.399Z,38.89
2016-10-19T12:24:24.931Z,39.62
2016-10-19T12:25:35.459Z,39.99
2016-10-19T12:26:46.000Z,39.77
2016-10-19T12:27:56.483Z,39.61
2016-10-19T12:29:06.966Z,39.69
2016-10-19T12:30:17.446Z,40.12
2016-10-19T12:31:27.917Z,38.55
2016-10-19T12:32:38.394Z,37.59
2016-10-19T12:33:48.872Z,37.35
2016-10-19T12:34:59.357Z,37.64
2016-10-19T12:36:09.835Z,38.26
2016-10-19T12:37:20.305Z,38.34
2016-10-19T12:38:30.777Z,38.79
2016-10-19T12:39:41.260Z,39.58
2016-10-19T12:40:51.729Z,39.9
2016-10-19T12:42:02.319Z,39.73
2016-10-19T12:43:12.796Z,39.22
2016-10-19T12:44:23.266Z,38.17
2016-10-19T12:45:34.235Z,38.15
2016-10-19T12:46:44.707Z,38.12
2016-10-19T12:47:55.278Z,38.33
2016-10-19T12:49:05.761Z,38.41
2016-10-19T12:50:16.228Z,38.64
2016-10-19T12:51:26.699Z,38.66
2016-10-19T12:52:37.171Z,39.06
2016-10-19T12:53:47.662Z,39.51
2016-10-19T12:54:58.147Z,38.82
2016-10-19T12:56:08.864Z,39.22
2016-10-19T12:57:19.336Z,39.67
2016-10-19T12:58:29.845Z,38.89
2016-10-19T12:59:40.429Z,38.23
2016-10-19T13:00:50.909Z,38.01
2016-10-19T13:02:01.397Z,38.26
2016-10-19T13:03:11.909Z,38.3
2016-10-19T13:04:22.385Z,38.86
2016-10-19T13:05:33.003Z,39.35
2016-10-19T13:06:43.480Z,39.08
2016-10-19T13:07:53.962Z,39.64
2016-10-19T13:09:04.470Z,39.55
2016-10-19T13:10:14.961Z,39.98
2016-10-19T13:11:25.624Z,40.18
2016-10-19T13:12:36.098Z,40.05
2016-10-19T13:13:46.589Z,39.7
2016-10-19T13:14:57.550Z,39.65
2016-10-19T13:16:08.033Z,39.99
2016-10-19T13:17:18.523Z,40.32
2016-10-19T13:18:29.018Z,40.05
2016-10-19T13:19:39.497Z,39.24
2016-10-19T13:20:49.984Z,39.44
2016-10-19T13:22:00.461Z,39.49
2016-10-19T13:23:10.992Z,39.21
2016-10-19T13:24:21.464Z,39.44
2016-10-19T13:25:31.989Z,39.37
2016-10-19T13:26:42.458Z,39.06
2016-10-19T13:27:53.421Z,38.96
2016-10-19T13:29:04.029Z,38.67
2016-10-19T13:30:14.513Z,38.26
2016-10-19T13:31:25.200Z,38.14
2016-10-19T13:32:35.682Z,38.03
2016-10-19T13:33:46.208Z,38.17
2016-10-19T13:34:56.732Z,37.89
2016-10-19T13:36:07.299Z,37.98
2016-10-19T13:37:17.808Z,38.36
2016-10-19T13:38:28.811Z,38.53
2016-10-19T13:39:39.353Z,38.58
2016-10-19T13:40:50.008Z,38.64
2016-10-19T13:42:01.040Z,38.82
2016-10-19T13:43:11.579Z,39.06
2016-10-19T13:44:22.163Z,38.33
2016-10-19T13:45:32.732Z,38.26
2016-10-19T13:46:57.878Z,37.93
2016-10-19T13:48:08.395Z,37.81
2016-10-19T13:49:18.919Z,37.7
2016-10-19T13:50:29.961Z,37.73
2016-10-19T13:51:40.943Z,37.7
2016-10-19T13:52:51.428Z,37.85
2016-10-19T13:54:02.390Z,37.71
2016-10-19T13:55:13.402Z,37.85
2016-10-19T13:56:24.906Z,38.08
2016-10-19T13:57:35.452Z,38.33
2016-10-19T13:58:45.960Z,38.39
2016-10-19T13:59:56.477Z,38.39
2016-10-19T14:01:06.980Z,38.53
2016-10-19T14:02:17.500Z,38.83
2016-10-19T14:03:28.200Z,39.1
2016-10-19T14:04:38.758Z,39.44
2016-10-19T14:05:49.330Z,39.62
2016-10-19T14:06:59.902Z,39.46
2016-10-19T14:08:10.400Z,39.09
2016-10-19T14:09:21.018Z,38.83
2016-10-19T14:10:31.555Z,39.09
2016-10-19T14:11:42.068Z,39.56
2016-10-19T14:12:52.559Z,39.64
2016-10-19T14:14:03.128Z,39.98
2016-10-19T14:15:13.758Z,40.12
2016-10-19T14:16:24.253Z,40.17
2016-10-19T14:17:34.774Z,40.21
2016-10-19T14:18:45.281Z,40.34
2016-10-19T14:19:55.777Z,40.45
2016-10-19T14:21:06.379Z,40.76
2016-10-19T14:22:17.419Z,40.71
2016-10-19T14:23:27.951Z,40.18
2016-10-19T14:24:38.519Z,39.24
2016-10-19T14:25:49.036Z,39.25
2016-10-19T14:26:59.677Z,38.89
2016-10-19T14:28:10.194Z,38.49
2016-10-19T14:29:20.737Z,38.44
2016-10-19T14:30:31.241Z,39.03
2016-10-19T14:31:41.771Z,38.73
2016-10-19T14:32:52.276Z,38.8
2016-10-19T14:34:02.804Z,38.96
2016-10-19T14:35:13.357Z,39.02
2016-10-19T14:36:23.911Z,39.28
2016-10-19T14:37:34.434Z,39.61
2016-10-19T14:38:45.056Z,39.49
2016-10-19T14:39:55.618Z,39.4
2016-10-19T14:41:06.632Z,39.37
2016-10-19T14:42:17.110Z,38.92
2016-10-19T14:43:27.683Z,38.78
2016-10-19T14:44:38.156Z,38.48
2016-10-19T14:45:48.681Z,38.68
2016-10-19T14:46:59.749Z,38.92
2016-10-19T14:48:10.251Z,39.37
2016-10-19T14:49:20.736Z,39.51
2016-10-19T14:50:31.797Z,39.64
2016-10-19T14:51:42.309Z,39.99
2016-10-19T14:52:53.358Z,40.02
2016-10-19T14:54:04.350Z,39.61
2016-10-19T14:55:15.355Z,39.59
2016-10-19T14:56:26.055Z,39.83
2016-10-19T14:57:36.561Z,39.95
2016-10-19T14:58:47.086Z,40.1
2016-10-19T14:59:57.602Z,39.99
2016-10-19T15:01:08.128Z,39.9
2016-10-19T15:02:18.701Z,39.58
2016-10-19T15:03:29.180Z,39.61
2016-10-19T15:04:39.691Z,39.83
2016-10-19T15:05:50.235Z,39.77
2016-10-19T15:07:00.816Z,39.67
2016-10-19T15:08:11.440Z,39.92
2016-10-19T15:09:21.946Z,39.98
2016-10-19T15:10:32.448Z,39.81
2016-10-19T15:11:42.934Z,39.52
2016-10-19T15:12:53.431Z,39.56
2016-10-19T15:14:03.938Z,39.8